Ottumwa Junction, Iowa
Current Conditions -  °F | °C
As of 2:53 AM on Saturday 25 Oct 2014 (Local Time) from KOTM Reporting Station
Moderate Fog Moderate Fog  
Wind Chill: 53°   Ceiling: 100
Heat Index: 53°   Visibility: 0.25mi
Dew Point: 52°   Wind: 7mph
Humidity: 96%   Direction: 290°WNW
Pressure: 29.98"   Gusts: NA
Location:  41.0803°N, 92.3054°W
Report Text: KOTM 250753Z AUTO 29006KT 1/4SM FG VV001 12/11 A2998 RMK AO2 SLP151 T01170111
Loading
Personal Weather Stations






























Interactive Weather Map
Tropical Storm Tracking
New forecast layout! Learn more

10-Day Weather Forecast

Advertisements
Track Severe Weather on mobile